sensor_id;sensor_type;location;lat;lon;timestamp;temperature;humidity
19864;DHT22;10094;48.820;9.226;2022-08-20T00:06:21;21.80;99.90
19864;DHT22;10094;48.820;9.226;2022-08-20T00:13:06;21.60;99.90
19864;DHT22;10094;48.820;9.226;2022-08-20T00:19:49;21.50;99.90
19864;DHT22;10094;48.820;9.226;2022-08-20T00:26:32;21.30;99.90
19864;DHT22;10094;48.820;9.226;2022-08-20T00:33:18;21.20;99.90
19864;DHT22;10094;48.820;9.226;2022-08-20T00:40:01;21.10;99.90
19864;DHT22;10094;48.820;9.226;2022-08-20T00:46:46;21.00;99.90
19864;DHT22;10094;48.820;9.226;2022-08-20T00:53:29;21.00;99.90
19864;DHT22;10094;48.820;9.226;2022-08-20T01:00:19;21.00;99.90
19864;DHT22;10094;48.820;9.226;2022-08-20T01:07:05;21.00;99.90
19864;DHT22;10094;48.820;9.226;2022-08-20T01:13:48;21.00;99.90
19864;DHT22;10094;48.820;9.226;2022-08-20T01:20:54;21.10;99.90
19864;DHT22;10094;48.820;9.226;2022-08-20T01:27:38;21.20;99.90
19864;DHT22;10094;48.820;9.226;2022-08-20T01:34:24;21.20;99.90
19864;DHT22;10094;48.820;9.226;2022-08-20T01:47:48;21.30;99.90
19864;DHT22;10094;48.820;9.226;2022-08-20T01:54:32;21.30;99.90
19864;DHT22;10094;48.820;9.226;2022-08-20T02:01:26;21.30;99.90
19864;DHT22;10094;48.820;9.226;2022-08-20T02:08:09;21.30;99.90
19864;DHT22;10094;48.820;9.226;2022-08-20T02:14:53;21.30;99.90
19864;DHT22;10094;48.820;9.226;2022-08-20T02:21:40;21.30;99.90
19864;DHT22;10094;48.820;9.226;2022-08-20T02:28:24;21.30;99.90
19864;DHT22;10094;48.820;9.226;2022-08-20T02:35:08;21.20;99.90
19864;DHT22;10094;48.820;9.226;2022-08-20T02:41:51;21.00;99.90
19864;DHT22;10094;48.820;9.226;2022-08-20T02:48:34;20.90;99.90
19864;DHT22;10094;48.820;9.226;2022-08-20T02:55:16;20.80;99.90
19864;DHT22;10094;48.820;9.226;2022-08-20T03:02:08;20.70;99.90
19864;DHT22;10094;48.820;9.226;2022-08-20T03:08:51;20.70;99.90
19864;DHT22;10094;48.820;9.226;2022-08-20T03:15:33;20.60;99.90
19864;DHT22;10094;48.820;9.226;2022-08-20T03:22:16;20.40;99.90
19864;DHT22;10094;48.820;9.226;2022-08-20T03:28:58;20.40;99.90
19864;DHT22;10094;48.820;9.226;2022-08-20T03:35:41;20.50;99.90
19864;DHT22;10094;48.820;9.226;2022-08-20T03:42:23;20.60;99.90
19864;DHT22;10094;48.820;9.226;2022-08-20T03:49:05;20.70;99.90
19864;DHT22;10094;48.820;9.226;2022-08-20T03:55:48;20.70;99.90
19864;DHT22;10094;48.820;9.226;2022-08-20T04:02:35;20.70;99.90
19864;DHT22;10094;48.820;9.226;2022-08-20T04:09:18;20.80;99.90
19864;DHT22;10094;48.820;9.226;2022-08-20T04:16:02;20.80;99.90
19864;DHT22;10094;48.820;9.226;2022-08-20T04:22:45;20.80;99.90
19864;DHT22;10094;48.820;9.226;2022-08-20T04:29:40;20.90;99.90
19864;DHT22;10094;48.820;9.226;2022-08-20T04:36:24;20.90;99.90
19864;DHT22;10094;48.820;9.226;2022-08-20T04:43:06;21.10;99.90
19864;DHT22;10094;48.820;9.226;2022-08-20T04:49:53;21.10;99.90
19864;DHT22;10094;48.820;9.226;2022-08-20T04:56:41;21.10;99.90
19864;DHT22;10094;48.820;9.226;2022-08-20T05:03:24;21.10;99.90
19864;DHT22;10094;48.820;9.226;2022-08-20T05:10:09;21.00;99.90
19864;DHT22;10094;48.820;9.226;2022-08-20T05:16:52;21.00;99.90
19864;DHT22;10094;48.820;9.226;2022-08-20T05:23:38;21.10;99.90
19864;DHT22;10094;48.820;9.226;2022-08-20T05:30:23;20.90;99.90
19864;DHT22;10094;48.820;9.226;2022-08-20T05:37:09;21.00;99.90
19864;DHT22;10094;48.820;9.226;2022-08-20T05:43:53;21.00;99.90
19864;DHT22;10094;48.820;9.226;2022-08-20T05:50:36;21.10;99.90
19864;DHT22;10094;48.820;9.226;2022-08-20T05:57:19;21.20;99.90
19864;DHT22;10094;48.820;9.226;2022-08-20T06:04:02;21.20;99.90
19864;DHT22;10094;48.820;9.226;2022-08-20T06:11:03;21.10;99.90
19864;DHT22;10094;48.820;9.226;2022-08-20T06:17:46;21.00;99.90
19864;DHT22;10094;48.820;9.226;2022-08-20T06:24:39;21.30;99.90
19864;DHT22;10094;48.820;9.226;2022-08-20T06:31:21;21.60;99.90
19864;DHT22;10094;48.820;9.226;2022-08-20T06:38:04;22.20;99.90
19864;DHT22;10094;48.820;9.226;2022-08-20T06:44:48;22.30;99.90
19864;DHT22;10094;48.820;9.226;2022-08-20T06:51:31;22.10;99.90
19864;DHT22;10094;48.820;9.226;2022-08-20T06:58:14;22.50;99.90
19864;DHT22;10094;48.820;9.226;2022-08-20T07:05:17;22.40;99.90
19864;DHT22;10094;48.820;9.226;2022-08-20T07:11:59;22.70;99.90
19864;DHT22;10094;48.820;9.226;2022-08-20T07:18:42;22.70;99.90
19864;DHT22;10094;48.820;9.226;2022-08-20T07:25:25;22.70;99.90
19864;DHT22;10094;48.820;9.226;2022-08-20T07:32:08;22.60;99.90
19864;DHT22;10094;48.820;9.226;2022-08-20T07:39:10;22.60;99.90
19864;DHT22;10094;48.820;9.226;2022-08-20T07:45:54;23.00;99.90
19864;DHT22;10094;48.820;9.226;2022-08-20T07:52:40;23.50;99.90
19864;DHT22;10094;48.820;9.226;2022-08-20T07:59:22;24.60;99.90
19864;DHT22;10094;48.820;9.226;2022-08-20T08:06:06;25.20;99.90
19864;DHT22;10094;48.820;9.226;2022-08-20T08:12:52;25.90;97.50
19864;DHT22;10094;48.820;9.226;2022-08-20T08:19:39;26.70;96.90
19864;DHT22;10094;48.820;9.226;2022-08-20T08:26:23;27.70;95.00
19864;DHT22;10094;48.820;9.226;2022-08-20T08:33:17;27.70;94.80
19864;DHT22;10094;48.820;9.226;2022-08-20T08:40:10;27.20;95.10
19864;DHT22;10094;48.820;9.226;2022-08-20T08:46:56;25.80;97.10
19864;DHT22;10094;48.820;9.226;2022-08-20T08:53:51;25.40;97.70
19864;DHT22;10094;48.820;9.226;2022-08-20T09:00:36;24.90;98.40
19864;DHT22;10094;48.820;9.226;2022-08-20T09:07:37;24.50;99.10
19864;DHT22;10094;48.820;9.226;2022-08-20T09:14:21;24.80;99.00
19864;DHT22;10094;48.820;9.226;2022-08-20T09:21:06;25.10;98.30
19864;DHT22;10094;48.820;9.226;2022-08-20T09:27:48;29.30;93.40
19864;DHT22;10094;48.820;9.226;2022-08-20T09:34:37;31.90;90.20
19864;DHT22;10094;48.820;9.226;2022-08-20T09:41:20;29.00;91.50
19864;DHT22;10094;48.820;9.226;2022-08-20T09:48:02;27.00;93.80
19864;DHT22;10094;48.820;9.226;2022-08-20T09:54:45;26.60;94.20
19864;DHT22;10094;48.820;9.226;2022-08-20T10:01:28;26.30;94.50
19864;DHT22;10094;48.820;9.226;2022-08-20T10:08:11;26.60;94.50
19864;DHT22;10094;48.820;9.226;2022-08-20T10:14:54;26.30;95.00
19864;DHT22;10094;48.820;9.226;2022-08-20T10:21:36;26.00;95.90
19864;DHT22;10094;48.820;9.226;2022-08-20T10:28:20;26.50;94.90
19864;DHT22;10094;48.820;9.226;2022-08-20T10:35:03;27.60;93.50
19864;DHT22;10094;48.820;9.226;2022-08-20T10:41:46;26.70;94.10
19864;DHT22;10094;48.820;9.226;2022-08-20T10:48:28;26.20;94.60
19864;DHT22;10094;48.820;9.226;2022-08-20T10:55:11;26.70;94.00
19864;DHT22;10094;48.820;9.226;2022-08-20T11:01:53;26.80;93.70
19864;DHT22;10094;48.820;9.226;2022-08-20T11:08:36;26.90;93.60
19864;DHT22;10094;48.820;9.226;2022-08-20T11:15:18;26.20;93.80
19864;DHT22;10094;48.820;9.226;2022-08-20T11:22:00;26.00;94.10
19864;DHT22;10094;48.820;9.226;2022-08-20T11:28:43;25.90;93.90
19864;DHT22;10094;48.820;9.226;2022-08-20T11:35:27;25.70;94.60
19864;DHT22;10094;48.820;9.226;2022-08-20T11:42:29;26.10;94.10
19864;DHT22;10094;48.820;9.226;2022-08-20T11:49:12;25.70;94.00
19864;DHT22;10094;48.820;9.226;2022-08-20T11:55:54;26.10;93.70
19864;DHT22;10094;48.820;9.226;2022-08-20T12:02:37;26.40;93.50
19864;DHT22;10094;48.820;9.226;2022-08-20T12:09:19;26.40;93.50
19864;DHT22;10094;48.820;9.226;2022-08-20T12:16:06;26.30;93.30
19864;DHT22;10094;48.820;9.226;2022-08-20T12:22:48;26.00;93.70
19864;DHT22;10094;48.820;9.226;2022-08-20T12:29:32;26.10;94.10
19864;DHT22;10094;48.820;9.226;2022-08-20T12:36:14;26.30;94.10
19864;DHT22;10094;48.820;9.226;2022-08-20T12:42:57;25.00;95.60
19864;DHT22;10094;48.820;9.226;2022-08-20T12:49:41;24.50;98.40
19864;DHT22;10094;48.820;9.226;2022-08-20T12:56:26;24.40;99.90
19864;DHT22;10094;48.820;9.226;2022-08-20T13:03:10;24.20;99.90
19864;DHT22;10094;48.820;9.226;2022-08-20T13:09:53;22.80;99.90
19864;DHT22;10094;48.820;9.226;2022-08-20T13:16:35;21.00;99.90
19864;DHT22;10094;48.820;9.226;2022-08-20T13:23:18;20.70;99.90
19864;DHT22;10094;48.820;9.226;2022-08-20T13:30:00;21.20;99.90
19864;DHT22;10094;48.820;9.226;2022-08-20T13:36:43;22.00;99.90
19864;DHT22;10094;48.820;9.226;2022-08-20T13:43:25;22.60;99.90
19864;DHT22;10094;48.820;9.226;2022-08-20T13:50:13;23.00;99.90
19864;DHT22;10094;48.820;9.226;2022-08-20T13:57:14;23.40;99.90
19864;DHT22;10094;48.820;9.226;2022-08-20T14:03:58;23.90;99.90
19864;DHT22;10094;48.820;9.226;2022-08-20T14:10:41;24.30;99.90
19864;DHT22;10094;48.820;9.226;2022-08-20T14:17:27;24.00;99.90
19864;DHT22;10094;48.820;9.226;2022-08-20T14:24:10;24.10;99.90
19864;DHT22;10094;48.820;9.226;2022-08-20T14:30:52;24.10;99.90
19864;DHT22;10094;48.820;9.226;2022-08-20T14:37:45;24.60;99.90
19864;DHT22;10094;48.820;9.226;2022-08-20T14:44:28;24.30;99.90
19864;DHT22;10094;48.820;9.226;2022-08-20T14:51:11;24.70;99.90
19864;DHT22;10094;48.820;9.226;2022-08-20T14:57:53;25.80;98.50
19864;DHT22;10094;48.820;9.226;2022-08-20T15:04:37;25.70;97.60
19864;DHT22;10094;48.820;9.226;2022-08-20T15:11:22;26.30;96.90
19864;DHT22;10094;48.820;9.226;2022-08-20T15:18:04;25.40;97.80
19864;DHT22;10094;48.820;9.226;2022-08-20T15:24:47;24.90;98.00
19864;DHT22;10094;48.820;9.226;2022-08-20T15:31:30;24.40;99.90
19864;DHT22;10094;48.820;9.226;2022-08-20T15:38:12;24.70;99.90
19864;DHT22;10094;48.820;9.226;2022-08-20T15:44:55;24.60;99.90
19864;DHT22;10094;48.820;9.226;2022-08-20T15:51:45;24.50;99.90
19864;DHT22;10094;48.820;9.226;2022-08-20T15:58:47;24.80;99.90
19864;DHT22;10094;48.820;9.226;2022-08-20T16:06:02;24.80;99.90
19864;DHT22;10094;48.820;9.226;2022-08-20T16:12:59;24.60;99.90
19864;DHT22;10094;48.820;9.226;2022-08-20T16:40:55;24.80;99.90
19864;DHT22;10094;48.820;9.226;2022-08-20T16:47:38;24.80;99.90
19864;DHT22;10094;48.820;9.226;2022-08-20T16:54:22;24.90;99.90
19864;DHT22;10094;48.820;9.226;2022-08-20T17:01:13;25.00;99.90
19864;DHT22;10094;48.820;9.226;2022-08-20T17:08:00;24.90;99.90
19864;DHT22;10094;48.820;9.226;2022-08-20T17:14:56;25.10;99.90
19864;DHT22;10094;48.820;9.226;2022-08-20T17:21:40;25.20;99.90
19864;DHT22;10094;48.820;9.226;2022-08-20T17:28:22;25.20;99.90
19864;DHT22;10094;48.820;9.226;2022-08-20T17:35:06;25.00;99.90
19864;DHT22;10094;48.820;9.226;2022-08-20T17:41:54;24.80;99.90
19864;DHT22;10094;48.820;9.226;2022-08-20T17:48:45;24.70;99.90
19864;DHT22;10094;48.820;9.226;2022-08-20T17:55:30;24.60;99.90
19864;DHT22;10094;48.820;9.226;2022-08-20T18:02:14;24.40;99.50
19864;DHT22;10094;48.820;9.226;2022-08-20T18:09:16;24.20;99.50
19864;DHT22;10094;48.820;9.226;2022-08-20T18:16:01;24.00;99.80
19864;DHT22;10094;48.820;9.226;2022-08-20T18:22:54;23.70;98.90
19864;DHT22;10094;48.820;9.226;2022-08-20T18:29:42;23.50;96.60
19864;DHT22;10094;48.820;9.226;2022-08-20T18:36:28;23.30;96.20
19864;DHT22;10094;48.820;9.226;2022-08-20T18:43:25;23.00;94.80
19864;DHT22;10094;48.820;9.226;2022-08-20T18:57:25;22.50;96.90
19864;DHT22;10094;48.820;9.226;2022-08-20T19:04:27;22.20;97.20
19864;DHT22;10094;48.820;9.226;2022-08-20T19:18:36;21.60;99.10
19864;DHT22;10094;48.820;9.226;2022-08-20T19:25:27;21.40;99.90
19864;DHT22;10094;48.820;9.226;2022-08-20T19:32:20;21.10;99.90
19864;DHT22;10094;48.820;9.226;2022-08-20T19:39:13;21.00;99.90
19864;DHT22;10094;48.820;9.226;2022-08-20T19:45:56;20.80;99.90
19864;DHT22;10094;48.820;9.226;2022-08-20T19:53:00;20.70;99.90
19864;DHT22;10094;48.820;9.226;2022-08-20T20:00:03;20.70;96.90
19864;DHT22;10094;48.820;9.226;2022-08-20T20:06:48;20.70;99.10
19864;DHT22;10094;48.820;9.226;2022-08-20T20:13:31;20.60;99.70
19864;DHT22;10094;48.820;9.226;2022-08-20T20:20:31;20.50;99.90
19864;DHT22;10094;48.820;9.226;2022-08-20T20:27:19;20.40;99.90
19864;DHT22;10094;48.820;9.226;2022-08-20T20:34:08;20.10;99.90
19864;DHT22;10094;48.820;9.226;2022-08-20T20:40:57;19.90;99.90
19864;DHT22;10094;48.820;9.226;2022-08-20T20:47:50;19.80;99.90
19864;DHT22;10094;48.820;9.226;2022-08-20T20:54:41;19.60;99.90
19864;DHT22;10094;48.820;9.226;2022-08-20T21:01:24;19.50;99.90
19864;DHT22;10094;48.820;9.226;2022-08-20T21:08:26;19.60;99.90
19864;DHT22;10094;48.820;9.226;2022-08-20T21:15:09;19.10;99.90
19864;DHT22;10094;48.820;9.226;2022-08-20T21:21:52;20.30;99.90
19864;DHT22;10094;48.820;9.226;2022-08-20T21:28:34;19.00;99.90
19864;DHT22;10094;48.820;9.226;2022-08-20T21:35:17;19.00;99.80
19864;DHT22;10094;48.820;9.226;2022-08-20T21:42:01;19.00;99.90
19864;DHT22;10094;48.820;9.226;2022-08-20T21:48:44;18.90;99.90
19864;DHT22;10094;48.820;9.226;2022-08-20T21:55:30;18.80;99.90
19864;DHT22;10094;48.820;9.226;2022-08-20T22:02:20;18.70;99.90
19864;DHT22;10094;48.820;9.226;2022-08-20T22:09:06;18.60;99.90
19864;DHT22;10094;48.820;9.226;2022-08-20T22:15:49;18.50;99.90
19864;DHT22;10094;48.820;9.226;2022-08-20T22:22:31;18.40;99.90
19864;DHT22;10094;48.820;9.226;2022-08-20T22:29:14;18.30;99.90
19864;DHT22;10094;48.820;9.226;2022-08-20T22:35:56;18.30;99.90
19864;DHT22;10094;48.820;9.226;2022-08-20T22:42:39;18.20;99.90
19864;DHT22;10094;48.820;9.226;2022-08-20T22:49:24;18.10;99.90
19864;DHT22;10094;48.820;9.226;2022-08-20T22:56:07;18.00;99.90
19864;DHT22;10094;48.820;9.226;2022-08-20T23:03:02;18.10;99.90
19864;DHT22;10094;48.820;9.226;2022-08-20T23:09:44;17.90;99.90
19864;DHT22;10094;48.820;9.226;2022-08-20T23:16:27;17.90;99.90
19864;DHT22;10094;48.820;9.226;2022-08-20T23:23:09;17.70;99.90
19864;DHT22;10094;48.820;9.226;2022-08-20T23:29:53;17.60;99.90
19864;DHT22;10094;48.820;9.226;2022-08-20T23:36:36;17.60;99.90
19864;DHT22;10094;48.820;9.226;2022-08-20T23:43:19;17.60;99.90
19864;DHT22;10094;48.820;9.226;2022-08-20T23:50:02;17.60;99.90
19864;DHT22;10094;48.820;9.226;2022-08-20T23:56:45;17.60;99.90
